Time;durP1;ratioP1;P1;durP2;ratioP2;P2;SDS_P1;SDS_P2;PMS_P1;PMS_P2;Temp;Humidity;BMP_temperature;BMP_pressure;BME280_temperature;BME280_humidity;BME280_pressure;Samples;Min_cycle;Max_cycle;Signal;HPM_P1;HPM_P2
2022/11/09 00:01:36;;;;;;;2.15;1.75;;;12.80;99.90;;;;;;5088917;28;20020;-49
2022/11/09 00:04:03;;;;;;;5.07;1.77;;;12.80;99.90;;;;;;5084719;28;20081;-51
2022/11/09 00:06:29;;;;;;;2.70;1.55;;;12.70;99.90;;;;;;5089333;28;20024;-52
2022/11/09 00:08:55;;;;;;;2.83;1.58;;;12.70;99.90;;;;;;5089378;28;20442;-50
2022/11/09 00:11:21;;;;;;;3.75;1.52;;;12.70;99.90;;;;;;5087954;28;20112;-52
2022/11/09 00:13:47;;;;;;;1.63;1.45;;;12.70;99.90;;;;;;5088914;28;20020;-53
2022/11/09 00:16:16;;;;;;;10.05;2.45;;;12.70;99.90;;;;;;5088954;28;20020;-50
2022/11/09 00:18:48;;;;;;;3.58;1.73;;;12.70;99.90;;;;;;5088798;28;20257;-52
2022/11/09 00:21:16;;;;;;;3.47;2.00;;;12.70;99.90;;;;;;5070238;28;20020;-50
2022/11/09 00:23:42;;;;;;;5.25;2.13;;;12.70;99.90;;;;;;5070664;28;20055;-51
2022/11/09 00:26:10;;;;;;;2.70;1.73;;;12.70;99.90;;;;;;5085955;28;20583;-51
2022/11/09 00:28:35;;;;;;;1.92;1.45;;;12.70;99.90;;;;;;5088277;28;20036;-50
2022/11/09 00:31:02;;;;;;;2.38;1.58;;;12.70;99.90;;;;;;5086271;28;20032;-50
2022/11/09 00:33:28;;;;;;;3.03;2.05;;;12.70;99.90;;;;;;5086404;28;20020;-52
2022/11/09 00:35:54;;;;;;;4.80;1.67;;;12.70;99.90;;;;;;5087528;28;20486;-52
2022/11/09 00:38:20;;;;;;;3.05;1.90;;;12.70;99.90;;;;;;5070410;28;20562;-50
2022/11/09 00:40:46;;;;;;;1.70;1.27;;;12.70;99.90;;;;;;5088106;28;20146;-53
2022/11/09 00:43:12;;;;;;;2.05;1.30;;;12.60;99.90;;;;;;5076737;28;20028;-51
2022/11/09 00:45:39;;;;;;;3.65;1.55;;;12.60;99.90;;;;;;5087883;28;20123;-52
2022/11/09 00:48:06;;;;;;;2.03;1.33;;;12.60;99.90;;;;;;5088822;28;20016;-50
2022/11/09 00:50:32;;;;;;;2.60;1.50;;;12.60;99.90;;;;;;5091300;28;20032;-52
2022/11/09 00:52:58;;;;;;;2.85;1.80;;;12.50;99.90;;;;;;5074404;28;20023;-51
2022/11/09 00:55:23;;;;;;;1.73;1.60;;;12.50;99.90;;;;;;5092549;28;20043;-50
2022/11/09 00:57:49;;;;;;;1.88;1.40;;;12.50;99.90;;;;;;5092255;28;20032;-52
2022/11/09 01:00:23;;;;;;;1.85;1.40;;;12.50;99.90;;;;;;5080711;28;20484;-50
2022/11/09 01:02:49;;;;;;;2.75;1.70;;;12.50;99.90;;;;;;5089781;28;20028;-50
2022/11/09 01:05:15;;;;;;;1.98;1.67;;;12.50;99.90;;;;;;5088827;28;20074;-50
2022/11/09 01:07:41;;;;;;;3.83;1.60;;;12.50;99.90;;;;;;5092513;28;20032;-52
2022/11/09 01:10:07;;;;;;;5.95;1.55;;;12.50;99.90;;;;;;5090209;28;20024;-52
2022/11/09 01:12:32;;;;;;;2.55;1.50;;;12.50;99.90;;;;;;5061961;28;20111;-51
2022/11/09 01:14:58;;;;;;;3.60;1.60;;;12.40;99.90;;;;;;5092156;28;20100;-51
2022/11/09 01:17:23;;;;;;;3.25;1.50;;;12.40;99.90;;;;;;5074003;28;20055;-51
2022/11/09 01:19:49;;;;;;;2.15;1.60;;;12.40;99.90;;;;;;5073848;28;20035;-50
2022/11/09 01:22:16;;;;;;;1.30;1.00;;;12.40;99.90;;;;;;5091764;28;20024;-50
2022/11/09 01:24:41;;;;;;;2.20;1.80;;;12.40;99.90;;;;;;5092076;28;20030;-52
2022/11/09 01:27:07;;;;;;;2.60;1.65;;;12.40;99.90;;;;;;5091878;28;20108;-52
2022/11/09 01:29:32;;;;;;;2.10;1.45;;;12.40;99.90;;;;;;5091931;28;20077;-51
2022/11/09 01:31:58;;;;;;;2.55;1.70;;;12.40;99.90;;;;;;5087694;28;20046;-50
2022/11/09 01:34:26;;;;;;;3.72;1.33;;;12.40;99.90;;;;;;5086362;28;20092;-52
2022/11/09 01:36:51;;;;;;;3.03;1.58;;;12.40;99.90;;;;;;5091431;28;20019;-53
2022/11/09 01:39:18;;;;;;;2.35;1.50;;;12.40;99.90;;;;;;5091699;28;20558;-52
2022/11/09 01:41:45;;;;;;;2.63;1.60;;;12.40;99.90;;;;;;5071452;28;20369;-50
2022/11/09 01:44:20;;;;;;;2.83;1.33;;;12.40;99.90;;;;;;5088993;28;20035;-49
2022/11/09 01:46:52;;;;;;;3.33;1.40;;;12.30;99.90;;;;;;5091956;28;20479;-51
2022/11/09 01:49:49;;;;;;;1.75;1.45;;;12.30;99.90;;;;;;5090613;28;20048;-51
2022/11/09 01:52:26;;;;;;;3.75;1.70;;;12.30;99.90;;;;;;5089913;28;20024;-52
2022/11/09 01:54:57;;;;;;;3.55;1.67;;;12.40;99.90;;;;;;5091451;28;20405;-51
2022/11/09 01:57:37;;;;;;;2.63;1.20;;;12.40;99.90;;;;;;5091306;28;20095;-50
2022/11/09 02:00:13;;;;;;;2.33;1.58;;;12.40;99.90;;;;;;5088903;28;20139;-50
2022/11/09 02:02:43;;;;;;;1.50;1.40;;;12.30;99.90;;;;;;5070760;28;20024;-54
2022/11/09 02:05:13;;;;;;;4.20;1.33;;;12.30;99.90;;;;;;5088571;28;20047;-51
2022/11/09 02:07:40;;;;;;;4.22;1.52;;;12.30;99.90;;;;;;5086876;28;20104;-54
2022/11/09 02:10:28;;;;;;;4.20;2.00;;;12.20;99.90;;;;;;5090310;28;20073;-50
2022/11/09 02:12:56;;;;;;;2.05;1.20;;;12.20;99.90;;;;;;5090144;28;20024;-50
2022/11/09 02:15:22;;;;;;;1.73;1.45;;;12.10;99.90;;;;;;5091289;28;20027;-48
2022/11/09 02:17:52;;;;;;;4.18;1.77;;;12.10;99.90;;;;;;5083640;28;20028;-52
2022/11/09 02:20:18;;;;;;;4.47;1.55;;;12.10;99.90;;;;;;5083034;28;20024;-52
2022/11/09 02:22:43;;;;;;;1.35;1.25;;;12.10;99.90;;;;;;5090849;28;20096;-55
2022/11/09 02:25:11;;;;;;;1.73;1.63;;;12.10;99.90;;;;;;5085316;28;20119;-51
2022/11/09 02:27:38;;;;;;;2.58;1.83;;;12.10;99.90;;;;;;5069455;28;20036;-51
2022/11/09 02:30:04;;;;;;;2.22;1.52;;;12.00;99.90;;;;;;5090785;28;20044;-52
2022/11/09 02:32:30;;;;;;;1.90;1.40;;;12.00;99.90;;;;;;5090008;28;20035;-54
2022/11/09 02:34:56;;;;;;;3.92;1.63;;;12.00;99.90;;;;;;5066635;28;20024;-54
2022/11/09 02:37:29;;;;;;;2.00;1.80;;;12.00;99.90;;;;;;5088064;28;20032;-53
2022/11/09 02:39:57;;;;;;;1.40;1.30;;;11.90;99.90;;;;;;5070001;28;20089;-53
2022/11/09 02:42:23;;;;;;;3.13;1.67;;;11.90;99.90;;;;;;5088913;28;20437;-54
2022/11/09 02:44:53;;;;;;;2.72;1.60;;;11.90;99.90;;;;;;5083115;28;20099;-52
2022/11/09 02:47:19;;;;;;;2.10;1.60;;;11.90;99.90;;;;;;5090856;28;20497;-50
2022/11/09 02:49:44;;;;;;;1.50;1.40;;;11.90;99.90;;;;;;5082377;28;20101;-52
2022/11/09 02:52:10;;;;;;;3.70;1.60;;;11.90;99.90;;;;;;5088829;28;20028;-51
2022/11/09 02:54:36;;;;;;;2.72;1.25;;;11.90;99.90;;;;;;5090272;28;20510;-53
2022/11/09 02:57:01;;;;;;;2.63;1.73;;;11.90;99.90;;;;;;5090044;28;20391;-50
2022/11/09 02:59:27;;;;;;;3.78;1.63;;;11.90;99.90;;;;;;5090139;28;20442;-53
2022/11/09 03:01:52;;;;;;;1.85;1.38;;;11.90;99.90;;;;;;5090034;28;20028;-50
2022/11/09 03:04:18;;;;;;;2.17;1.50;;;11.80;99.90;;;;;;5090486;28;20024;-51
2022/11/09 03:06:43;;;;;;;2.63;1.88;;;11.80;99.90;;;;;;5090656;28;20012;-51
2022/11/09 03:09:10;;;;;;;2.80;1.80;;;11.70;99.90;;;;;;5071854;28;20024;-50
2022/11/09 03:11:37;;;;;;;4.28;1.75;;;11.70;99.90;;;;;;5084408;28;20439;-52
2022/11/09 03:14:03;;;;;;;3.25;1.70;;;11.70;99.90;;;;;;5065621;28;20024;-53
2022/11/09 03:16:29;;;;;;;1.88;1.63;;;11.60;99.90;;;;;;5081859;28;20032;-53
2022/11/09 03:18:55;;;;;;;4.57;1.92;;;11.60;99.90;;;;;;5090182;28;20414;-50
2022/11/09 03:21:21;;;;;;;3.63;2.22;;;11.60;99.90;;;;;;5080668;28;20036;-51
2022/11/09 03:23:47;;;;;;;4.47;2.28;;;11.60;99.90;;;;;;5089923;28;20027;-50
2022/11/09 03:26:13;;;;;;;2.22;1.55;;;11.60;99.90;;;;;;5084202;28;20386;-50
2022/11/09 03:28:38;;;;;;;2.35;1.40;;;11.50;99.90;;;;;;5089702;28;20142;-52
2022/11/09 03:31:04;;;;;;;2.13;1.80;;;11.50;99.90;;;;;;5071537;28;20109;-52
2022/11/09 03:33:30;;;;;;;3.65;1.80;;;11.50;99.90;;;;;;5089127;28;20452;-50
2022/11/09 03:35:56;;;;;;;2.55;1.60;;;11.50;99.90;;;;;;5088284;28;20028;-48
2022/11/09 03:38:21;;;;;;;4.00;1.38;;;11.50;99.90;;;;;;5064065;28;20185;-50
2022/11/09 03:40:47;;;;;;;2.33;1.30;;;11.50;99.90;;;;;;5089298;28;20032;-52
2022/11/09 03:43:12;;;;;;;4.97;1.80;;;11.50;99.90;;;;;;5089142;28;20403;-55
2022/11/09 03:45:38;;;;;;;1.25;1.15;;;11.50;99.90;;;;;;5063856;28;20403;-50
2022/11/09 03:48:04;;;;;;;2.50;1.63;;;11.50;99.90;;;;;;5089268;28;20127;-51
2022/11/09 03:50:32;;;;;;;2.72;1.80;;;11.50;99.90;;;;;;5089353;28;20615;-51
2022/11/09 03:52:59;;;;;;;2.28;1.45;;;11.50;99.90;;;;;;5089340;28;20020;-51
2022/11/09 03:55:25;;;;;;;3.28;1.42;;;11.50;99.90;;;;;;5070847;28;20027;-52
2022/11/09 03:57:51;;;;;;;3.08;1.95;;;11.50;99.90;;;;;;5089223;28;20028;-53
2022/11/09 04:00:18;;;;;;;3.22;1.88;;;11.50;99.90;;;;;;5085045;28;20025;-54
2022/11/09 04:02:44;;;;;;;2.55;1.63;;;11.50;99.90;;;;;;5087071;28;20016;-54
2022/11/09 04:05:10;;;;;;;1.70;1.60;;;11.50;99.90;;;;;;5086547;28;20459;-52
2022/11/09 04:07:37;;;;;;;2.25;1.58;;;11.50;99.90;;;;;;5085299;28;20024;-51
2022/11/09 04:10:04;;;;;;;3.72;2.03;;;11.50;99.90;;;;;;5087072;28;20046;-52
2022/11/09 04:12:30;;;;;;;3.00;1.40;;;11.60;99.90;;;;;;5082957;28;20475;-54
2022/11/09 04:14:55;;;;;;;2.08;1.58;;;11.60;99.90;;;;;;5089117;28;20024;-52
2022/11/09 04:17:21;;;;;;;1.90;1.65;;;11.60;99.90;;;;;;5066453;28;20031;-50
2022/11/09 04:19:46;;;;;;;2.00;1.40;;;11.60;99.90;;;;;;5069120;28;20039;-50
2022/11/09 04:22:12;;;;;;;4.70;1.60;;;11.60;99.90;;;;;;5086695;28;20031;-50
2022/11/09 04:24:38;;;;;;;2.63;2.13;;;11.60;99.90;;;;;;5087906;28;20028;-49
2022/11/09 04:27:04;;;;;;;2.17;1.77;;;11.70;99.90;;;;;;5067540;28;20024;-52
2022/11/09 04:29:29;;;;;;;4.10;1.75;;;11.70;99.90;;;;;;5088273;28;20020;-52
2022/11/09 04:31:55;;;;;;;3.15;1.60;;;11.70;99.90;;;;;;5086297;28;20047;-50
2022/11/09 04:34:20;;;;;;;2.25;1.50;;;11.80;99.90;;;;;;5070873;28;20018;-50
2022/11/09 04:36:46;;;;;;;2.78;1.40;;;11.70;99.90;;;;;;5086853;28;20024;-51
2022/11/09 04:39:12;;;;;;;4.55;1.67;;;11.80;99.90;;;;;;5069955;28;20099;-51
2022/11/09 04:41:37;;;;;;;1.88;1.50;;;11.80;99.90;;;;;;5070237;28;20479;-52
2022/11/09 04:44:03;;;;;;;2.95;1.20;;;11.80;99.90;;;;;;5070012;28;20594;-51
2022/11/09 04:46:28;;;;;;;2.55;1.50;;;11.80;99.90;;;;;;5088879;28;20031;-54
2022/11/09 04:48:54;;;;;;;1.65;1.27;;;11.80;99.90;;;;;;5079162;28;20126;-50
2022/11/09 04:51:20;;;;;;;1.70;1.27;;;11.80;99.90;;;;;;5081538;28;20070;-53
2022/11/09 04:53:45;;;;;;;3.30;1.48;;;11.80;99.90;;;;;;5086469;28;20020;-52
2022/11/09 04:56:11;;;;;;;3.33;1.65;;;11.80;99.90;;;;;;5085591;28;20052;-52
2022/11/09 04:58:37;;;;;;;2.95;1.52;;;11.80;99.90;;;;;;5088897;28;20028;-51
2022/11/09 05:01:03;;;;;;;3.22;1.83;;;11.90;99.90;;;;;;5088382;28;20023;-51
2022/11/09 05:03:29;;;;;;;2.38;1.58;;;11.90;99.90;;;;;;5086847;28;20432;-50
2022/11/09 05:05:55;;;;;;;1.65;1.45;;;11.90;99.90;;;;;;5088493;28;20071;-53
2022/11/09 05:08:20;;;;;;;4.30;1.90;;;12.00;99.90;;;;;;5088809;28;20418;-53
2022/11/09 05:10:46;;;;;;;3.88;2.25;;;12.00;99.90;;;;;;5088669;28;20449;-56
2022/11/09 05:13:12;;;;;;;3.75;1.85;;;12.00;99.90;;;;;;5088044;28;20122;-51
2022/11/09 05:15:38;;;;;;;3.10;1.38;;;12.00;99.90;;;;;;5088395;28;20492;-51
2022/11/09 05:18:05;;;;;;;2.90;1.70;;;12.10;99.90;;;;;;5088573;28;20073;-54
2022/11/09 05:20:31;;;;;;;4.13;1.52;;;12.10;99.90;;;;;;5086468;28;20032;-51
2022/11/09 05:25:42;;;;;;;2.63;1.33;;;12.10;99.90;;;;;;5080956;28;20175;-53
2022/11/09 05:28:08;;;;;;;2.13;1.55;;;12.20;99.90;;;;;;5083453;28;20449;-51
2022/11/09 05:30:33;;;;;;;2.08;1.33;;;12.20;99.90;;;;;;5093325;28;20032;-55
2022/11/09 05:32:59;;;;;;;1.90;1.65;;;12.30;99.90;;;;;;5081355;28;20407;-50
2022/11/09 05:35:24;;;;;;;2.55;1.25;;;12.30;99.90;;;;;;5087836;28;20395;-51
2022/11/09 05:37:50;;;;;;;1.83;1.55;;;12.30;99.90;;;;;;5072490;28;20068;-53
2022/11/09 05:40:18;;;;;;;4.60;1.20;;;12.40;99.90;;;;;;5091808;28;20035;-52
2022/11/09 05:42:44;;;;;;;1.35;1.25;;;12.40;99.90;;;;;;5084085;28;20100;-51
2022/11/09 05:45:13;;;;;;;2.65;2.05;;;12.40;99.90;;;;;;5089901;28;20398;-53
2022/11/09 05:47:43;;;;;;;1.45;1.13;;;12.40;99.90;;;;;;5092238;28;20016;-52
2022/11/09 05:50:11;;;;;;;3.03;1.35;;;12.50;99.90;;;;;;5091884;28;20107;-51
2022/11/09 05:52:37;;;;;;;2.35;1.65;;;12.40;99.90;;;;;;5092191;28;20028;-49
2022/11/09 05:55:03;;;;;;;2.15;1.38;;;12.50;99.90;;;;;;5092012;28;20031;-49
2022/11/09 05:57:29;;;;;;;2.13;1.40;;;12.50;99.90;;;;;;5091907;28;20028;-52
2022/11/09 05:59:54;;;;;;;8.95;4.47;;;12.50;99.90;;;;;;5091789;28;20020;-55
2022/11/09 06:02:20;;;;;;;2.38;1.40;;;12.50;99.90;;;;;;5091409;28;20047;-49
2022/11/09 06:04:45;;;;;;;2.28;1.33;;;12.40;99.90;;;;;;5091700;28;20081;-51
2022/11/09 06:07:11;;;;;;;3.65;1.27;;;12.40;99.90;;;;;;5073590;28;20024;-53
2022/11/09 06:09:37;;;;;;;4.95;1.52;;;12.40;99.90;;;;;;5073685;28;20022;-49
2022/11/09 06:12:02;;;;;;;2.88;1.30;;;12.40;99.90;;;;;;5091643;28;20020;-52
2022/11/09 06:14:28;;;;;;;2.03;1.20;;;12.40;99.90;;;;;;5091766;28;20024;-53
2022/11/09 06:16:53;;;;;;;3.75;1.92;;;12.40;99.90;;;;;;5091706;28;20024;-51
2022/11/09 06:19:19;;;;;;;3.95;1.75;;;12.40;99.90;;;;;;5091316;28;20116;-50
2022/11/09 06:21:44;;;;;;;1.92;1.20;;;12.40;99.90;;;;;;5073265;28;20028;-49
2022/11/09 06:24:13;;;;;;;3.75;1.20;;;12.40;99.90;;;;;;5091851;28;20020;-53
2022/11/09 06:26:38;;;;;;;3.03;1.70;;;12.40;99.90;;;;;;5090940;28;20020;-51
2022/11/09 06:29:04;;;;;;;2.88;1.20;;;12.50;99.90;;;;;;5091279;28;20551;-53
2022/11/09 06:31:30;;;;;;;3.35;1.52;;;12.50;99.90;;;;;;5093080;28;20263;-54
2022/11/09 06:33:55;;;;;;;2.25;1.58;;;12.50;99.90;;;;;;5092492;28;20198;-49
2022/11/09 06:36:21;;;;;;;2.20;1.30;;;12.60;99.90;;;;;;5066361;28;20028;-52
2022/11/09 06:38:51;;;;;;;2.15;1.42;;;12.60;99.90;;;;;;5091094;28;20028;-53
2022/11/09 06:41:17;;;;;;;2.42;1.45;;;12.60;99.90;;;;;;5087448;28;20593;-52
2022/11/09 06:43:43;;;;;;;2.85;1.55;;;12.60;99.90;;;;;;5091156;28;20028;-55
2022/11/09 06:46:13;;;;;;;3.70;1.50;;;12.60;99.90;;;;;;5085332;28;20028;-52
2022/11/09 06:48:39;;;;;;;1.85;1.17;;;12.60;99.90;;;;;;5085010;28;20016;-49
2022/11/09 06:51:05;;;;;;;1.63;1.40;;;12.60;99.90;;;;;;5084504;28;20091;-50
2022/11/09 06:53:33;;;;;;;2.63;1.27;;;12.70;99.90;;;;;;5090424;28;20024;-52
2022/11/09 06:56:01;;;;;;;3.88;1.85;;;12.70;99.90;;;;;;5090876;28;20089;-51
2022/11/09 06:58:26;;;;;;;2.80;1.50;;;12.70;99.90;;;;;;5072258;28;20118;-53
2022/11/09 07:00:52;;;;;;;2.85;1.27;;;12.70;99.90;;;;;;5090629;28;20130;-51
2022/11/09 07:03:19;;;;;;;1.17;1.08;;;12.60;99.90;;;;;;5090374;28;20023;-50
2022/11/09 07:05:45;;;;;;;3.22;1.60;;;12.70;99.90;;;;;;5090560;28;20483;-52
2022/11/09 07:08:11;;;;;;;2.30;1.30;;;12.70;99.90;;;;;;5090281;28;20077;-52
2022/11/09 07:10:37;;;;;;;2.03;1.45;;;12.70;99.90;;;;;;5072222;28;20283;-51
2022/11/09 07:13:03;;;;;;;2.40;1.55;;;12.70;99.90;;;;;;5086688;28;20034;-52
2022/11/09 07:15:29;;;;;;;1.48;1.13;;;12.70;99.90;;;;;;5084088;28;20032;-53
2022/11/09 07:17:59;;;;;;;1.75;1.08;;;12.70;99.90;;;;;;5095888;28;20111;-51
2022/11/09 07:20:25;;;;;;;1.65;1.40;;;12.70;99.90;;;;;;5073807;28;20024;-49
2022/11/09 07:22:51;;;;;;;1.33;1.00;;;12.60;99.90;;;;;;5095957;28;20024;-54
2022/11/09 07:25:17;;;;;;;1.20;1.10;;;12.60;99.90;;;;;;5093944;28;20069;-50
2022/11/09 07:27:43;;;;;;;3.25;1.25;;;12.60;99.90;;;;;;5090613;28;20083;-51
2022/11/09 07:30:09;;;;;;;2.83;1.42;;;12.60;99.90;;;;;;5090292;28;20046;-50
2022/11/09 07:32:35;;;;;;;3.70;1.45;;;12.60;99.90;;;;;;5071465;28;20078;-55
2022/11/09 07:35:03;;;;;;;1.20;1.10;;;12.50;99.90;;;;;;5088524;28;20027;-50
2022/11/09 07:37:28;;;;;;;2.53;1.25;;;12.50;99.90;;;;;;5090162;28;20016;-52
2022/11/09 07:39:54;;;;;;;1.73;1.20;;;12.50;99.90;;;;;;5071440;28;20032;-54
2022/11/09 07:42:19;;;;;;;5.05;1.85;;;12.50;99.90;;;;;;5089958;28;20016;-51
2022/11/09 07:44:45;;;;;;;3.63;1.25;;;12.50;99.90;;;;;;5089595;28;20036;-53
2022/11/09 07:47:11;;;;;;;1.48;1.23;;;12.50;99.90;;;;;;5071395;28;20024;-50
2022/11/09 07:49:36;;;;;;;4.63;1.33;;;12.50;99.90;;;;;;5071855;28;20012;-54
2022/11/09 07:52:02;;;;;;;5.47;0.98;;;12.60;99.90;;;;;;5089416;28;20418;-52
2022/11/09 07:54:27;;;;;;;2.50;1.40;;;12.50;99.90;;;;;;5089782;28;20028;-52
2022/11/09 07:56:53;;;;;;;3.15;1.40;;;12.60;99.90;;;;;;5071666;28;20637;-51
2022/11/09 07:59:19;;;;;;;3.30;1.00;;;12.50;99.90;;;;;;5089877;28;20024;-52
2022/11/09 08:01:44;;;;;;;2.00;1.33;;;12.60;99.90;;;;;;5066977;28;20119;-47
2022/11/09 08:04:10;;;;;;;2.55;1.55;;;12.60;99.90;;;;;;5089458;28;20063;-54
2022/11/09 08:06:35;;;;;;;2.85;1.23;;;12.70;99.90;;;;;;5089839;28;20026;-52
2022/11/09 08:09:01;;;;;;;5.50;1.40;;;12.70;99.90;;;;;;5089110;28;20491;-53
2022/11/09 08:11:26;;;;;;;1.67;1.20;;;12.70;99.90;;;;;;5089150;28;20039;-51
2022/11/09 08:13:52;;;;;;;1.38;1.23;;;12.70;99.90;;;;;;5085209;28;20031;-51
2022/11/09 08:16:18;;;;;;;3.30;1.45;;;12.70;99.90;;;;;;5081673;28;20016;-53
2022/11/09 08:18:44;;;;;;;2.92;1.50;;;12.80;99.90;;;;;;5089351;28;20020;-52
2022/11/09 08:21:09;;;;;;;1.48;1.05;;;12.80;99.90;;;;;;5089229;28;20042;-53
2022/11/09 08:23:35;;;;;;;1.83;1.30;;;12.80;99.90;;;;;;5089035;28;20024;-54
2022/11/09 08:26:05;;;;;;;3.20;1.45;;;12.80;99.90;;;;;;5089664;28;20016;-53
2022/11/09 08:28:31;;;;;;;2.85;1.02;;;12.80;99.90;;;;;;5087979;28;20020;-51
2022/11/09 08:30:59;;;;;;;4.55;1.50;;;12.80;99.90;;;;;;5086861;28;20081;-51
2022/11/09 08:33:27;;;;;;;3.83;1.48;;;12.80;99.90;;;;;;5112979;22;20047;-56
2022/11/09 08:35:53;;;;;;;2.65;1.17;;;12.80;99.90;;;;;;5063664;28;20043;-53
2022/11/09 08:38:18;;;;;;;3.25;1.48;;;12.80;99.90;;;;;;5080361;28;20475;-55
2022/11/09 08:40:44;;;;;;;6.20;1.63;;;12.90;99.90;;;;;;5084697;28;20019;-56
2022/11/09 08:43:10;;;;;;;2.33;1.10;;;12.90;99.90;;;;;;5077888;28;20436;-55
2022/11/09 08:45:38;;;;;;;1.23;1.13;;;12.90;99.90;;;;;;5083055;28;20605;-55
2022/11/09 08:48:05;;;;;;;4.18;1.50;;;12.90;99.90;;;;;;5084972;28;20016;-56
2022/11/09 08:50:32;;;;;;;3.38;1.52;;;12.90;99.90;;;;;;5088896;28;20514;-56
2022/11/09 08:53:00;;;;;;;2.80;1.60;;;12.90;99.90;;;;;;5083528;28;20074;-55
2022/11/09 08:55:25;;;;;;;3.92;1.10;;;13.00;99.90;;;;;;5082019;28;20032;-56
2022/11/09 08:57:56;;;;;;;1.50;1.15;;;13.00;99.90;;;;;;5080438;28;20034;-57
2022/11/09 09:00:22;;;;;;;5.53;1.67;;;13.00;99.90;;;;;;5084244;28;20544;-56
2022/11/09 09:02:48;;;;;;;2.75;1.52;;;13.10;99.90;;;;;;5087317;28;20151;-56
2022/11/09 09:05:14;;;;;;;3.75;1.70;;;13.20;99.90;;;;;;5084678;28;20024;-54
2022/11/09 09:07:40;;;;;;;2.85;1.65;;;13.20;99.90;;;;;;5085485;28;20085;-56
2022/11/09 09:10:05;;;;;;;6.78;1.73;;;13.30;99.90;;;;;;5085941;28;20083;-57
2022/11/09 09:12:31;;;;;;;2.50;1.42;;;13.40;99.90;;;;;;5084818;28;20027;-55
2022/11/09 09:14:57;;;;;;;4.22;1.73;;;13.40;99.90;;;;;;5091786;28;20100;-54
2022/11/09 09:17:23;;;;;;;6.00;1.73;;;13.50;99.90;;;;;;5088916;28;20033;-56
2022/11/09 09:19:48;;;;;;;5.20;2.17;;;13.50;99.90;;;;;;5091481;28;20123;-55
2022/11/09 09:22:14;;;;;;;5.03;1.48;;;13.60;99.90;;;;;;5075260;28;20016;-57
2022/11/09 09:24:39;;;;;;;3.55;1.98;;;13.70;99.90;;;;;;5084162;28;20028;-56
2022/11/09 09:27:05;;;;;;;3.97;1.60;;;13.70;99.90;;;;;;5090551;28;20030;-56
2022/11/09 09:29:30;;;;;;;4.43;1.85;;;13.80;99.90;;;;;;5081067;28;20035;-56
2022/11/09 09:31:56;;;;;;;3.13;1.60;;;13.90;99.90;;;;;;5091723;28;20020;-55
2022/11/09 09:34:21;;;;;;;3.20;1.50;;;13.90;99.90;;;;;;5087613;28;20032;-55
2022/11/09 09:36:47;;;;;;;3.78;1.23;;;14.00;99.90;;;;;;5091207;28;20020;-54
2022/11/09 09:39:13;;;;;;;5.55;2.10;;;14.00;99.90;;;;;;5088512;28;20399;-54
2022/11/09 09:42:07;;;;;;;4.38;2.08;;;14.10;99.90;;;;;;5090593;28;20028;-54
2022/11/09 09:44:52;;;;;;;4.05;1.23;;;14.10;99.90;;;;;;5083334;28;20028;-55
2022/11/09 09:47:23;;;;;;;4.57;2.30;;;14.20;99.90;;;;;;5084489;28;20425;-56
2022/11/09 09:50:01;;;;;;;6.53;1.80;;;14.20;99.90;;;;;;5091293;28;20099;-55
2022/11/09 09:52:59;;;;;;;5.30;1.60;;;14.20;99.90;;;;;;5087277;28;20552;-55
2022/11/09 09:55:51;;;;;;;6.25;2.00;;;14.20;99.90;;;;;;5053264;28;20066;-53
2022/11/09 09:58:26;;;;;;;4.20;1.42;;;14.20;99.90;;;;;;5071874;28;20044;-57
2022/11/09 10:01:10;;;;;;;6.75;1.33;;;14.20;99.90;;;;;;5087353;28;20099;-55
2022/11/09 10:03:36;;;;;;;3.67;1.13;;;14.20;99.90;;;;;;5068401;28;20039;-56
2022/11/09 10:06:13;;;;;;;4.43;1.85;;;14.20;99.90;;;;;;5087592;28;20077;-57
2022/11/09 10:08:57;;;;;;;6.88;1.55;;;14.10;99.90;;;;;;5086816;28;20031;-55
2022/11/09 10:11:32;;;;;;;7.28;1.88;;;14.10;99.90;;;;;;5084345;28;20031;-54
2022/11/09 10:14:21;;;;;;;4.30;1.48;;;14.20;99.90;;;;;;5088110;28;20047;-54
2022/11/09 10:16:57;;;;;;;5.80;1.30;;;14.20;99.90;;;;;;5091217;28;20102;-53
2022/11/09 10:19:36;;;;;;;4.93;1.50;;;14.20;99.90;;;;;;5087435;28;20012;-56
2022/11/09 10:22:27;;;;;;;6.20;1.52;;;14.20;99.90;;;;;;5088213;28;20407;-56
2022/11/09 10:25:26;;;;;;;7.68;1.67;;;14.20;99.90;;;;;;5086435;28;20039;-56
2022/11/09 10:28:06;;;;;;;5.68;2.03;;;14.20;99.90;;;;;;5078764;28;20547;-57
2022/11/09 10:30:32;;;;;;;4.65;1.73;;;14.30;99.90;;;;;;5088388;28;20486;-55
2022/11/09 10:33:10;;;;;;;3.92;1.20;;;14.30;99.90;;;;;;5090263;28;20027;-56
2022/11/09 10:35:51;;;;;;;5.07;2.05;;;14.30;99.90;;;;;;5085960;28;20031;-55
2022/11/09 10:38:30;;;;;;;4.20;1.23;;;14.40;99.90;;;;;;5090267;28;20036;-56
2022/11/09 10:41:26;;;;;;;3.55;1.50;;;14.40;99.90;;;;;;5085222;28;20480;-55
2022/11/09 10:43:52;;;;;;;4.82;1.73;;;14.40;99.90;;;;;;5087780;28;20024;-57
2022/11/09 10:46:20;;;;;;;4.05;1.67;;;14.40;99.90;;;;;;5082876;28;20090;-56
2022/11/09 10:48:46;;;;;;;6.32;2.25;;;14.40;99.90;;;;;;5090579;28;20066;-54
2022/11/09 10:51:30;;;;;;;3.38;1.45;;;14.40;99.90;;;;;;5079435;28;20616;-57
2022/11/09 10:54:20;;;;;;;4.88;1.55;;;14.40;99.90;;;;;;5064572;28;20027;-56
2022/11/09 10:56:58;;;;;;;6.13;1.27;;;14.40;99.90;;;;;;5087076;28;20020;-55
2022/11/09 10:59:36;;;;;;;4.80;1.38;;;14.40;99.90;;;;;;5082362;28;20414;-54
2022/11/09 11:02:22;;;;;;;4.55;1.35;;;14.40;99.90;;;;;;5085125;28;20027;-56
2022/11/09 11:04:47;;;;;;;5.18;1.50;;;14.40;99.90;;;;;;5088781;28;20036;-53
2022/11/09 11:07:14;;;;;;;4.93;1.40;;;14.30;99.90;;;;;;5080167;28;20020;-56
2022/11/09 11:09:40;;;;;;;3.20;1.27;;;14.20;99.90;;;;;;5089628;28;20123;-54
2022/11/09 11:12:19;;;;;;;3.25;1.08;;;14.20;99.90;;;;;;5082599;28;20108;-51
2022/11/09 11:14:45;;;;;;;4.78;1.60;;;14.20;99.90;;;;;;5086119;28;20019;-56
2022/11/09 11:17:33;;;;;;;7.00;1.83;;;14.20;99.90;;;;;;5087318;28;20029;-55
2022/11/09 11:20:23;;;;;;;6.55;1.35;;;14.20;99.90;;;;;;5087508;28;20039;-56
2022/11/09 11:22:49;;;;;;;3.70;1.92;;;14.20;99.90;;;;;;5085374;28;20064;-56
2022/11/09 11:25:20;;;;;;;3.92;1.98;;;14.30;99.90;;;;;;5087871;28;20095;-54
2022/11/09 11:27:52;;;;;;;5.03;1.48;;;14.30;99.90;;;;;;5084223;28;20020;-53
2022/11/09 11:30:30;;;;;;;4.45;1.02;;;14.30;99.90;;;;;;5082429;28;20554;-55
2022/11/09 11:32:57;;;;;;;7.30;1.80;;;14.40;99.90;;;;;;5088495;28;20128;-54
2022/11/09 11:35:25;;;;;;;4.20;1.40;;;14.40;99.90;;;;;;5085909;28;20031;-55
2022/11/09 11:38:19;;;;;;;6.05;1.90;;;14.40;99.90;;;;;;5088388;28;20031;-54
2022/11/09 11:41:14;;;;;;;2.95;1.55;;;14.50;99.90;;;;;;5085687;28;20016;-56
2022/11/09 11:44:04;;;;;;;2.90;1.25;;;14.60;99.90;;;;;;5085240;28;20026;-55
2022/11/09 11:46:47;;;;;;;2.05;1.25;;;14.60;99.90;;;;;;5083442;28;20020;-56
2022/11/09 11:49:40;;;;;;;5.72;1.70;;;14.70;99.90;;;;;;5089509;28;20024;-56
2022/11/09 11:52:26;;;;;;;3.30;1.45;;;14.60;99.90;;;;;;5083563;28;20034;-55
2022/11/09 11:55:06;;;;;;;7.97;1.20;;;14.50;99.90;;;;;;5083995;28;20396;-56
2022/11/09 11:57:55;;;;;;;5.05;1.80;;;14.50;99.90;;;;;;5088928;28;20020;-54
2022/11/09 12:00:21;;;;;;;6.03;1.83;;;14.50;99.90;;;;;;5085853;28;20372;-55
2022/11/09 12:03:28;;;;;;;5.10;1.60;;;14.40;99.90;;;;;;5087631;28;20028;-56
2022/11/09 12:06:10;;;;;;;3.33;1.67;;;14.40;99.90;;;;;;5080977;28;20058;-55
2022/11/09 12:08:44;;;;;;;6.45;1.40;;;14.50;99.90;;;;;;5083601;28;20399;-55
2022/11/09 12:11:20;;;;;;;4.57;2.17;;;14.50;99.90;;;;;;5087885;28;20115;-58
2022/11/09 12:14:06;;;;;;;3.53;1.45;;;14.50;99.90;;;;;;5085471;28;20055;-55
2022/11/09 12:17:02;;;;;;;6.60;2.05;;;14.50;99.90;;;;;;5082413;28;20027;-56
2022/11/09 12:19:35;;;;;;;7.75;1.60;;;14.50;99.90;;;;;;5085158;28;20035;-54
2022/11/09 12:22:31;;;;;;;4.57;1.48;;;14.50;99.90;;;;;;5085712;28;20525;-53
2022/11/09 12:25:00;;;;;;;;;;;14.50;99.90;;;;;;5084818;28;20130;-56
2022/11/09 12:27:40;;;;;;;5.00;1.65;;;14.50;99.90;;;;;;5088246;28;19914;-53
2022/11/09 12:30:15;;;;;;;4.00;1.30;;;14.50;99.90;;;;;;5084947;28;20046;-55
2022/11/09 12:33:02;;;;;;;3.92;1.20;;;14.50;99.90;;;;;;5086878;28;20517;-52
2022/11/09 12:36:11;;;;;;;4.57;1.50;;;14.40;99.90;;;;;;5064576;28;20024;-53
2022/11/09 12:38:53;;;;;;;4.90;1.33;;;14.40;99.90;;;;;;5006407;28;20030;-53
2022/11/09 12:41:22;;;;;;;3.15;1.08;;;14.40;99.90;;;;;;5001484;28;20033;-54
2022/11/09 12:44:02;;;;;;;4.47;1.73;;;14.40;99.90;;;;;;5051951;28;20034;-51
2022/11/09 12:46:47;;;;;;;3.30;0.98;;;14.40;99.90;;;;;;5083760;28;20035;-53
2022/11/09 12:49:33;;;;;;;6.25;1.75;;;14.40;99.90;;;;;;5079797;28;20053;-55
2022/11/09 12:51:59;;;;;;;5.88;1.58;;;14.40;99.90;;;;;;5065583;28;20032;-54
2022/11/09 12:54:25;;;;;;;3.65;1.40;;;14.40;99.90;;;;;;5082743;28;20095;-54
2022/11/09 12:56:57;;;;;;;3.40;1.48;;;14.40;99.90;;;;;;5085509;28;20019;-56
2022/11/09 12:59:28;;;;;;;9.30;2.25;;;14.40;99.90;;;;;;5081289;28;20024;-53
2022/11/09 13:01:57;;;;;;;3.08;0.90;;;14.40;99.90;;;;;;5084079;28;20020;-54
2022/11/09 13:04:23;;;;;;;5.93;1.42;;;14.40;99.90;;;;;;5080995;28;20035;-53